Historyczne dane pomiarowe

Dodano dane terminowe – wersja testowa.

Dane z okresu 1951-2019

Wersja bazy: 1.34 [2019-03-16, lista zmian], aktualizacja planowana na 2019-04-15

Dane meteo z obszaru Polski uzyskane na podstawie danych udostępnionych przez Instytut Meteorologii i Gospodarki Wodnej – Państwowy Instytut Badawczy.

 

Wybierz Datę:    

       

TemperaturaWilgotnośćZachmurzenieWiatrCiśnienieWidzialnośćZjawiska
 Data    tng td wb rh cc ccl cl cm ch dir g1 g2 mslp ppp      
1999-08-02 00:00:00 4.8--- 2.9 3.988wxwxwxwxwx7wx--- 802.7 0.0---wx
1999-08-02 01:00:00 4.4--- 1.5 3.181wxwxwx6wx--- 802.5----wx
1999-08-02 02:00:00 4.2--- 3.1 3.792wxwxwxwx7wx--- 802.3----wx
1999-08-02 03:00:00 4.1--- 2.1 3.287wxwxwxwx6wx--- 802.2----wx
1999-08-02 04:00:00 3.8--- 2.5 3.392wxwxwxwxwx6wx--- 802.2----wx
1999-08-02 05:00:00 3.8--- 2.7 3.292wxwxwxwxwx7wx--- 802.2----wx
1999-08-02 06:00:00 4.1--- 3.1 3.793wxwxwxwx6wx--- 802.2 0.0---wx
1999-08-02 07:00:00 4.3--- 4.3 4.3100wxwxwx7wx--- 802.2----wx
1999-08-02 08:00:00 4.4--- 4.4 4.4100wxwxwx7wx--- 802.4----wxw1
1999-08-02 09:00:00 4.5--- 4.5 4.5100wxwx6wx--- 802.7----wxw1
1999-08-02 10:00:00 4.1--- 4.1 4.1100wxwxwx6wx--- 802.9----wxw1
1999-08-02 11:00:00 3.9--- 3.9 3.9100wxwxwx4wx--- 802.8----wxw1
1999-08-02 12:00:00 4.2--- 4.1 4.2100wxwx5wx--- 802.6 0.4---wxw1
1999-08-02 13:00:00 4.9--- 4.9 4.9100wxwx5wx--- 802.6----wxw1
1999-08-02 14:00:00 5.2--- 5.1 5.2100wxwx5wx--- 802.5----wxw1
1999-08-02 15:00:00 5.1--- 5.1 5.1100wxwx4wx--- 802.5----wxw1
1999-08-02 16:00:00 5.0--- 5.0 5.0100wxwx4wx--- 802.3----wxw1
1999-08-02 17:00:00 4.7--- 4.6 4.7100wxwx7wx--- 802.1----wxw1
1999-08-02 18:00:00 4.5--- 2.3 3.586wxwxwxwxwx6wx--- 802.0 0.2---wxw1
1999-08-02 19:00:00 4.1--- 4.1 4.1100wxwxwx5wx--- 802.2----wx
1999-08-02 20:00:00 4.4--- 4.4 4.4100wxwxwx6wx--- 802.2----wxw1
1999-08-02 21:00:00 4.6--- 3.6 4.194wxwxwx4wx--- 802.2----wx
1999-08-02 22:00:00 4.3--- 2.3 3.487wxwxwx5wx--- 802.1----wx
1999-08-02 23:00:00 4.1--- 1.9 3.185wxwxwx6wx--- 801.6----wx

 

Źródłem pochodzenia danych jest Instytut Meteorologii i Gospodarki Wodnej – Państwowy Instytut Badawczy. Dane Instytutu Meteorologii i Gospodarki Wodnej – Państwowego Instytutu Badawczego zostały przetworzone.

Dane źródłowe można odnaleźć na stronie https://dane.imgw.pl